createdAt,value
2023-10-18T00:00:59.413Z,100813.66
2023-10-18T00:04:02.095Z,100823.13
2023-10-18T00:07:04.685Z,100815.94
2023-10-18T00:10:09.610Z,100815.41
2023-10-18T00:13:13.260Z,100812.91
2023-10-18T00:16:15.673Z,100799.50
2023-10-18T00:19:18.474Z,100798.69
2023-10-18T00:22:20.783Z,100805.28
2023-10-18T00:25:23.293Z,100812.28
2023-10-18T00:28:25.621Z,100821.09
2023-10-18T00:31:28.617Z,100815.81
2023-10-18T00:34:31.118Z,100809.09
2023-10-18T00:37:33.374Z,100795.28
2023-10-18T00:40:37.017Z,100807.88
2023-10-18T00:43:45.515Z,100811.44
2023-10-18T00:46:52.072Z,100800.91
2023-10-18T00:49:54.589Z,100800.06
2023-10-18T00:52:56.852Z,100806.38
2023-10-18T00:56:05.871Z,100804.00
2023-10-18T00:59:28.162Z,100795.69
2023-10-18T01:02:30.958Z,100791.41
2023-10-18T01:05:34.193Z,100774.91
2023-10-18T01:08:39.830Z,100768.91
2023-10-18T01:11:42.942Z,100761.25
2023-10-18T01:14:46.065Z,100763.88
2023-10-18T01:17:49.275Z,100770.75
2023-10-18T01:20:51.871Z,100770.63
2023-10-18T01:23:56.872Z,100772.44
2023-10-18T01:27:00.013Z,100769.03
2023-10-18T01:30:02.845Z,100764.25
2023-10-18T01:33:05.945Z,100761.97
2023-10-18T01:36:13.029Z,100747.75
2023-10-18T01:39:22.015Z,100763.44
2023-10-18T01:42:26.445Z,100766.00
2023-10-18T01:45:36.452Z,100769.91
2023-10-18T01:48:41.565Z,100756.25
2023-10-18T01:51:48.793Z,100760.00
2023-10-18T01:54:53.585Z,100759.06
2023-10-18T01:57:55.965Z,100754.63
2023-10-18T02:00:58.699Z,100754.25
2023-10-18T02:04:04.004Z,100764.13
2023-10-18T02:07:08.548Z,100750.75
2023-10-18T02:10:12.561Z,100752.59
2023-10-18T02:13:15.315Z,100753.63
2023-10-18T02:16:20.686Z,100758.81
2023-10-18T02:19:23.689Z,100756.94
2023-10-18T02:22:28.674Z,100761.81
2023-10-18T02:25:47.415Z,100765.38
2023-10-18T02:28:50.134Z,100764.03
2023-10-18T02:31:54.093Z,100766.06
2023-10-18T02:34:56.375Z,100767.97
2023-10-18T02:37:58.704Z,100761.97
2023-10-18T02:41:05.403Z,100761.06
2023-10-18T02:44:17.051Z,100761.28
2023-10-18T02:47:23.675Z,100771.13
2023-10-18T02:50:25.952Z,100771.13
2023-10-18T02:53:28.189Z,100772.84
2023-10-18T02:56:38.548Z,100774.66
2023-10-18T02:59:42.333Z,100771.03
2023-10-18T03:02:45.675Z,100766.72
2023-10-18T03:05:48.415Z,100770.31
2023-10-18T03:08:50.951Z,100762.66
2023-10-18T03:11:55.236Z,100769.75
2023-10-18T03:14:58.176Z,100755.47
2023-10-18T03:18:01.659Z,100750.78
2023-10-18T03:21:08.089Z,100745.97
2023-10-18T03:24:13.614Z,100744.31
2023-10-18T03:27:16.117Z,100747.69
2023-10-18T03:30:19.735Z,100740.97
2023-10-18T03:33:21.935Z,100742.69
2023-10-18T03:36:27.268Z,100749.84
2023-10-18T03:39:29.957Z,100751.66
2023-10-18T03:42:32.664Z,100745.50
2023-10-18T03:45:59.049Z,100737.72
2023-10-18T03:49:03.094Z,100739.16
2023-10-18T03:52:15.560Z,100729.81
2023-10-18T03:55:18.833Z,100742.78
2023-10-18T03:58:24.250Z,100738.97
2023-10-18T04:01:28.169Z,100736.00
2023-10-18T04:04:35.915Z,100734.34
2023-10-18T04:07:39.557Z,100736.16
2023-10-18T04:10:42.453Z,100737.72
2023-10-18T04:13:45.544Z,100742.03
2023-10-18T04:16:55.268Z,100748.47
2023-10-18T04:19:57.575Z,100753.88
2023-10-18T04:23:01.210Z,100754.09
2023-10-18T04:26:05.055Z,100759.41
2023-10-18T04:29:11.944Z,100756.72
2023-10-18T04:32:20.647Z,100760.34
2023-10-18T04:35:34.440Z,100755.91
2023-10-18T04:38:48.466Z,100746.94
2023-10-18T04:41:50.795Z,100754.09
2023-10-18T04:44:57.328Z,100753.19
2023-10-18T04:48:07.334Z,100760.22
2023-10-18T04:51:17.478Z,100761.25
2023-10-18T04:54:29.043Z,100749.09
2023-10-18T04:57:35.648Z,100756.78
2023-10-18T05:00:53.688Z,100756.97
2023-10-18T05:04:00.275Z,100750.84
2023-10-18T05:07:12.423Z,100755.66
2023-10-18T05:10:15.655Z,100755.31
2023-10-18T05:13:23.275Z,100759.13
2023-10-18T05:16:28.201Z,100755.00
2023-10-18T05:19:38.685Z,100760.66
2023-10-18T05:22:42.932Z,100759.69
2023-10-18T05:25:48.060Z,100760.66
2023-10-18T05:28:51.085Z,100769.56
2023-10-18T05:32:13.733Z,100773.75
2023-10-18T05:35:28.632Z,100773.84
2023-10-18T05:38:49.644Z,100774.09
2023-10-18T05:41:52.794Z,100775.81
2023-10-18T05:44:55.213Z,100779.09
2023-10-18T05:48:13.528Z,100769.34
2023-10-18T05:51:37.532Z,100773.84
2023-10-18T05:54:40.685Z,100764.69
2023-10-18T05:57:46.430Z,100761.94
2023-10-18T06:00:49.761Z,100764.50
2023-10-18T06:03:52.676Z,100769.34
2023-10-18T06:06:59.951Z,100769.97
2023-10-18T06:10:10.631Z,100766.97
2023-10-18T06:13:22.159Z,100780.66
2023-10-18T06:16:30.798Z,100792.28
2023-10-18T06:19:34.609Z,100792.53
2023-10-18T06:22:45.082Z,100798.84
2023-10-18T06:25:50.469Z,100785.00
2023-10-18T06:28:54.481Z,100784.41
2023-10-18T06:31:57.689Z,100795.94
2023-10-18T06:35:00.325Z,100795.25
2023-10-18T06:38:09.720Z,100794.44
2023-10-18T06:41:20.859Z,100789.63
2023-10-18T06:44:31.635Z,100780.94
2023-10-18T06:47:45.332Z,100765.69
2023-10-18T06:50:47.835Z,100750.78
2023-10-18T06:53:51.652Z,100749.63
2023-10-18T06:56:55.576Z,100742.47
2023-10-18T06:59:57.885Z,100744.72
2023-10-18T07:03:03.078Z,100731.75
2023-10-18T07:06:06.649Z,100740.94
2023-10-18T07:09:25.988Z,100741.41
2023-10-18T07:12:28.989Z,100738.91
2023-10-18T07:15:35.512Z,100753.13
2023-10-18T07:18:37.792Z,100741.72
2023-10-18T07:21:42.157Z,100746.13
2023-10-18T07:24:48.349Z,100750.50
2023-10-18T07:27:51.327Z,100744.50
2023-10-18T07:30:56.608Z,100756.44
2023-10-18T07:34:04.195Z,100744.41
2023-10-18T07:37:26.933Z,100734.13
2023-10-18T07:40:35.116Z,100726.72
2023-10-18T07:43:37.433Z,100748.63
2023-10-18T07:46:42.862Z,100745.06
2023-10-18T07:49:46.545Z,100734.88
2023-10-18T07:52:48.842Z,100736.00
2023-10-18T07:55:58.320Z,100734.78
2023-10-18T07:59:21.846Z,100729.94
2023-10-18T08:02:28.296Z,100716.84
2023-10-18T08:05:44.606Z,100735.22
2023-10-18T08:08:48.285Z,100741.75
2023-10-18T08:11:51.943Z,100737.75
2023-10-18T08:14:55.936Z,100746.88
2023-10-18T08:18:01.909Z,100742.72
2023-10-18T08:21:08.222Z,100742.81
2023-10-18T08:24:20.478Z,100729.00
2023-10-18T08:27:22.770Z,100732.78
2023-10-18T08:30:25.293Z,100730.56
2023-10-18T08:33:27.945Z,100728.81
2023-10-18T08:36:32.893Z,100734.69
2023-10-18T08:39:42.762Z,100729.75
2023-10-18T08:42:52.351Z,100736.22
2023-10-18T08:45:54.690Z,100724.00
2023-10-18T08:48:58.116Z,100723.16
2023-10-18T08:52:10.041Z,100724.59
2023-10-18T08:55:23.939Z,100722.22
2023-10-18T08:58:29.427Z,100718.84
2023-10-18T09:01:36.059Z,100714.78
2023-10-18T09:04:38.743Z,100718.56
2023-10-18T09:07:44.567Z,100721.28
2023-10-18T09:10:55.953Z,100707.66
2023-10-18T09:14:13.556Z,100710.63
2023-10-18T09:17:22.814Z,100706.38
2023-10-18T09:20:29.072Z,100704.19
2023-10-18T09:23:32.258Z,100702.38
2023-10-18T09:26:41.770Z,100707.59
2023-10-18T09:29:44.803Z,100708.28
2023-10-18T09:32:48.157Z,100698.09
2023-10-18T09:35:50.609Z,100691.78
2023-10-18T09:38:55.161Z,100703.28
2023-10-18T09:42:00.818Z,100696.09
2023-10-18T09:45:04.151Z,100692.97
2023-10-18T09:48:09.689Z,100687.78
2023-10-18T09:51:16.279Z,100693.50
2023-10-18T09:54:22.867Z,100688.47
2023-10-18T09:57:25.749Z,100681.63
2023-10-18T10:00:31.293Z,100674.59
2023-10-18T10:03:36.478Z,100681.78
2023-10-18T10:06:46.529Z,100674.03
2023-10-18T10:09:49.266Z,100667.50
2023-10-18T10:12:59.121Z,100655.22
2023-10-18T10:16:04.557Z,100660.34
2023-10-18T10:19:12.476Z,100652.84
2023-10-18T10:22:17.267Z,100647.75
2023-10-18T10:25:32.785Z,100649.50
2023-10-18T10:29:05.897Z,100643.03
2023-10-18T10:32:08.636Z,100628.94
2023-10-18T10:35:19.057Z,100635.13
2023-10-18T10:38:27.646Z,100625.06
2023-10-18T10:41:33.220Z,100622.41
2023-10-18T10:45:32.633Z,100613.41
2023-10-18T10:48:38.422Z,100610.75
2023-10-18T10:51:50.977Z,100615.72
2023-10-18T10:55:03.173Z,100612.69
2023-10-18T10:58:17.622Z,100616.94
2023-10-18T11:01:33.079Z,100602.88
2023-10-18T11:04:53.872Z,100592.56
2023-10-18T11:08:02.282Z,100590.97
2023-10-18T11:11:07.813Z,100586.25
2023-10-18T11:14:10.191Z,100576.03
2023-10-18T11:17:15.618Z,100581.53
2023-10-18T11:20:21.055Z,100584.44
2023-10-18T11:23:27.275Z,100569.44
2023-10-18T11:26:29.962Z,100576.38
2023-10-18T11:29:32.224Z,100555.56
2023-10-18T11:32:34.766Z,100564.19
2023-10-18T11:35:39.994Z,100549.28
2023-10-18T11:39:02.237Z,100546.34
2023-10-18T11:42:09.704Z,100537.19
2023-10-18T11:45:24.415Z,100536.63
2023-10-18T11:48:33.994Z,100533.03
2023-10-18T11:51:45.253Z,100530.16
2023-10-18T11:54:48.830Z,100528.91
2023-10-18T11:57:51.513Z,100526.13
2023-10-18T12:01:07.961Z,100516.44
2023-10-18T12:04:10.951Z,100511.34
2023-10-18T12:07:15.503Z,100503.56
2023-10-18T12:10:21.900Z,100506.47
2023-10-18T12:13:25.551Z,100508.91
2023-10-18T12:16:28.004Z,100502.38
2023-10-18T12:19:33.913Z,100499.22
2023-10-18T12:22:37.484Z,100491.44
2023-10-18T12:25:43.964Z,100490.22
2023-10-18T12:28:50.444Z,100489.50
2023-10-18T12:31:54.461Z,100490.59
2023-10-18T12:34:57.958Z,100480.66
2023-10-18T12:38:00.294Z,100476.41
2023-10-18T12:41:19.163Z,100471.69
2023-10-18T12:44:26.368Z,100471.59
2023-10-18T12:47:29.608Z,100464.06
2023-10-18T12:50:32.041Z,100454.63
2023-10-18T12:53:43.690Z,100448.69
2023-10-18T12:57:18.976Z,100449.31
2023-10-18T13:00:27.213Z,100442.16
2023-10-18T13:03:35.350Z,100427.59
2023-10-18T13:06:43.738Z,100435.00
2023-10-18T13:09:46.267Z,100432.34
2023-10-18T13:13:06.127Z,100422.16
2023-10-18T13:16:14.750Z,100425.34
2023-10-18T13:19:17.198Z,100420.00
2023-10-18T13:22:19.642Z,100407.75
2023-10-18T13:25:38.448Z,100410.75
2023-10-18T13:28:52.444Z,100398.72
2023-10-18T13:32:07.924Z,100391.06
2023-10-18T13:35:16.465Z,100396.69
2023-10-18T13:38:20.780Z,100384.94
2023-10-18T13:41:23.219Z,100374.28
2023-10-18T13:44:26.650Z,100376.84
2023-10-18T13:47:29.159Z,100368.13
2023-10-18T13:50:39.276Z,100365.22
2023-10-18T13:53:43.090Z,100360.59
2023-10-18T13:56:45.572Z,100351.63
2023-10-18T13:59:47.871Z,100343.25
2023-10-18T14:02:50.346Z,100340.97
2023-10-18T14:05:53.469Z,100336.59
2023-10-18T14:08:56.255Z,100325.22
2023-10-18T14:12:02.191Z,100326.47
2023-10-18T14:15:04.916Z,100329.38
2023-10-18T14:18:07.663Z,100319.72
2023-10-18T14:21:15.911Z,100322.09
2023-10-18T14:24:26.182Z,100319.44
2023-10-18T14:27:30.172Z,100318.97
2023-10-18T14:30:35.343Z,100316.53
2023-10-18T14:33:38.139Z,100321.75
2023-10-18T14:36:42.343Z,100309.28
2023-10-18T14:39:45.594Z,100311.19
2023-10-18T14:42:47.884Z,100309.72
2023-10-18T14:45:50.212Z,100313.13
2023-10-18T14:48:54.368Z,100315.31
2023-10-18T14:51:57.265Z,100302.72
2023-10-18T14:55:03.030Z,100303.22
2023-10-18T14:58:06.320Z,100305.41
2023-10-18T15:01:13.405Z,100297.03
2023-10-18T15:04:15.800Z,100299.81
2023-10-18T15:07:18.261Z,100303.69
2023-10-18T15:10:20.658Z,100296.66
2023-10-18T15:13:22.938Z,100305.91
2023-10-18T15:16:26.722Z,100295.72
2023-10-18T15:19:29.421Z,100294.03
2023-10-18T15:22:34.934Z,100299.59
2023-10-18T15:25:37.233Z,100295.63
2023-10-18T15:28:40.827Z,100303.13
2023-10-18T15:31:43.192Z,100302.78
2023-10-18T15:34:47.085Z,100305.19
2023-10-18T15:37:49.523Z,100303.22
2023-10-18T15:40:51.830Z,100291.63
2023-10-18T15:43:57.125Z,100298.75
2023-10-18T15:47:01.357Z,100294.28
2023-10-18T15:50:07.797Z,100292.34
2023-10-18T15:53:12.797Z,100287.75
2023-10-18T15:56:15.578Z,100288.38
2023-10-18T15:59:18.585Z,100287.53
2023-10-18T16:02:21.246Z,100285.09
2023-10-18T16:05:29.788Z,100291.38
2023-10-18T16:08:32.650Z,100284.38
2023-10-18T16:11:35.050Z,100281.81
2023-10-18T16:14:37.673Z,100284.59
2023-10-18T16:17:40.155Z,100283.16
2023-10-18T16:20:42.632Z,100283.41
2023-10-18T16:23:51.474Z,100281.81
2023-10-18T16:26:53.861Z,100276.00
2023-10-18T16:29:56.227Z,100284.94
2023-10-18T16:32:58.650Z,100277.34
2023-10-18T16:36:02.855Z,100273.84
2023-10-18T16:39:06.391Z,100270.56
2023-10-18T16:42:10.203Z,100262.09
2023-10-18T16:45:13.422Z,100269.34
2023-10-18T16:48:15.745Z,100269.59
2023-10-18T16:51:18.472Z,100255.03
2023-10-18T16:54:20.814Z,100252.66
2023-10-18T16:57:23.197Z,100257.97
2023-10-18T17:00:26.038Z,100253.47
2023-10-18T17:03:31.267Z,100242.94
2023-10-18T17:06:34.588Z,100244.09
2023-10-18T17:09:37.208Z,100241.91
2023-10-18T17:12:40.957Z,100239.50
2023-10-18T17:15:43.242Z,100236.84
2023-10-18T17:18:51.040Z,100236.34
2023-10-18T17:21:53.413Z,100230.28
2023-10-18T17:25:02.137Z,100227.16
2023-10-18T17:28:08.988Z,100223.75
2023-10-18T17:31:13.156Z,100224.72
2023-10-18T17:34:15.767Z,100218.56
2023-10-18T17:37:18.102Z,100217.44
2023-10-18T17:40:21.506Z,100224.22
2023-10-18T17:43:26.083Z,100218.63
2023-10-18T17:46:28.747Z,100214.28
2023-10-18T17:49:31.509Z,100213.53
2023-10-18T17:52:34.007Z,100215.84
2023-10-18T17:55:36.313Z,100213.06
2023-10-18T17:58:39.190Z,100220.53
2023-10-18T18:01:46.378Z,100209.16
2023-10-18T18:04:54.460Z,100215.91
2023-10-18T18:07:56.808Z,100206.47
2023-10-18T18:10:59.198Z,100209.81
2023-10-18T18:14:01.572Z,100205.16
2023-10-18T18:17:08.525Z,100202.84
2023-10-18T18:20:16.048Z,100200.94
2023-10-18T18:23:20.749Z,100204.88
2023-10-18T18:26:26.765Z,100198.84
2023-10-18T18:29:32.824Z,100199.56
2023-10-18T18:32:36.830Z,100203.28
2023-10-18T18:35:40.377Z,100209.91
2023-10-18T18:38:45.515Z,100207.06
2023-10-18T18:41:49.948Z,100205.09
2023-10-18T18:44:52.259Z,100198.03
2023-10-18T18:47:54.686Z,100194.88
2023-10-18T18:50:59.984Z,100190.19
2023-10-18T18:54:06.513Z,100186.56
2023-10-18T18:57:09.229Z,100185.72
2023-10-18T19:00:17.209Z,100181.84
2023-10-18T19:03:19.580Z,100176.53
2023-10-18T19:06:22.067Z,100175.78
2023-10-18T19:09:24.454Z,100180.47
2023-10-18T19:12:27.623Z,100186.63
2023-10-18T19:15:30.524Z,100180.06
2023-10-18T19:18:33.916Z,100189.84
2023-10-18T19:21:37.225Z,100192.81
2023-10-18T19:24:40.812Z,100180.28
2023-10-18T19:27:44.126Z,100178.59
2023-10-18T19:30:46.919Z,100183.69
2023-10-18T19:33:50.396Z,100183.47
2023-10-18T19:37:00.980Z,100173.91
2023-10-18T19:40:06.916Z,100173.28
2023-10-18T19:43:09.280Z,100174.97
2023-10-18T19:46:12.230Z,100170.97
2023-10-18T19:49:14.646Z,100165.75
2023-10-18T19:52:16.972Z,100173.94
2023-10-18T19:55:19.223Z,100165.69
2023-10-18T19:58:21.488Z,100170.03
2023-10-18T20:01:23.812Z,100169.28
2023-10-18T20:04:29.103Z,100173.06
2023-10-18T20:07:31.470Z,100162.19
2023-10-18T20:10:34.356Z,100170.03
2023-10-18T20:13:37.171Z,100174.81
2023-10-18T20:16:39.558Z,100173.78
2023-10-18T20:19:41.987Z,100163.78
2023-10-18T20:22:46.676Z,100171.03
2023-10-18T20:25:57.816Z,100163.41
2023-10-18T20:29:00.424Z,100176.44
2023-10-18T20:32:04.059Z,100173.25
2023-10-18T20:35:08.848Z,100164.91
2023-10-18T20:38:13.582Z,100165.63
2023-10-18T20:41:17.206Z,100163.19
2023-10-18T20:44:20.435Z,100169.56
2023-10-18T20:47:29.179Z,100174.75
2023-10-18T20:50:37.315Z,100167.03
2023-10-18T20:53:41.912Z,100169.56
2023-10-18T20:56:48.217Z,100173.38
2023-10-18T20:59:53.723Z,100171.69
2023-10-18T21:02:56.586Z,100171.06
2023-10-18T21:05:59.982Z,100176.56
2023-10-18T21:09:02.732Z,100172.31
2023-10-18T21:12:07.837Z,100168.28
2023-10-18T21:15:12.445Z,100163.63
2023-10-18T21:18:15.233Z,100158.97
2023-10-18T21:21:18.667Z,100158.53
2023-10-18T21:24:21.129Z,100151.88
2023-10-18T21:27:23.404Z,100144.75
2023-10-18T21:30:27.268Z,100136.69
2023-10-18T21:33:29.751Z,100130.94
2023-10-18T21:36:33.106Z,100115.91
2023-10-18T21:39:35.911Z,100103.84
2023-10-18T21:42:41.484Z,100103.41
2023-10-18T21:45:43.722Z,100103.22
2023-10-18T21:48:46.246Z,100100.88
2023-10-18T21:51:48.512Z,100099.81
2023-10-18T21:54:51.222Z,100099.50
2023-10-18T21:57:53.534Z,100093.84
2023-10-18T22:01:03.810Z,100089.88
2023-10-18T22:04:08.486Z,100079.78
2023-10-18T22:07:16.341Z,100085.00
2023-10-18T22:10:23.436Z,100074.41
2023-10-18T22:13:32.004Z,100069.66
2023-10-18T22:16:36.970Z,100067.50
2023-10-18T22:19:39.340Z,100077.16
2023-10-18T22:22:42.063Z,100071.00
2023-10-18T22:25:56.276Z,100074.41
2023-10-18T22:29:10.577Z,100071.00
2023-10-18T22:35:18.740Z,100061.88
2023-10-18T22:38:21.910Z,100070.97
2023-10-18T22:41:33.542Z,100062.09
2023-10-18T22:44:42.461Z,100066.63
2023-10-18T22:47:45.501Z,100051.91
2023-10-18T22:50:55.917Z,100036.63
2023-10-18T22:54:04.517Z,100029.69
2023-10-18T22:57:19.130Z,100016.53
2023-10-18T23:00:32.882Z,100005.28
2023-10-18T23:03:37.471Z,100002.75
2023-10-18T23:06:41.098Z,99999.53
2023-10-18T23:09:46.229Z,100003.56
2023-10-18T23:12:48.500Z,100001.03
2023-10-18T23:15:57.501Z,99997.41
2023-10-18T23:19:00.403Z,100002.50
2023-10-18T23:22:15.723Z,100004.41
2023-10-18T23:25:36.902Z,100005.91
2023-10-18T23:28:47.186Z,99994.00
2023-10-18T23:32:19.050Z,99989.53
2023-10-18T23:35:27.959Z,99983.28
2023-10-18T23:38:39.650Z,99980.41
2023-10-18T23:41:49.611Z,99987.19
2023-10-18T23:44:54.460Z,99974.91
2023-10-18T23:48:25.720Z,99971.91
2023-10-18T23:51:34.863Z,99982.13
2023-10-18T23:54:37.655Z,99980.31
2023-10-18T23:57:40.362Z,99988.28
